Aeroporto :
LOGIN :

Iscrizione | Disclaimer

   EN    FR    IT 

 










Sommario :    VFR   VFR Marginale   IFR   IFR Intensivo   IFR Molto Intensivo
Visibilità : 
Base nubi : 
>= 8 km
>= 3000ft
5 / 8 km
1000 / 3000 ft
1500m / 5 km
500 / 1000 ft
800 / 1500m
200 / 500 ft
< 800m
< 200 ft
Simboli :   Temporali  Nebbia  Neve Forte  Precipitazioni Forti  Vento > 20 kt
SIGMETs :   Varie  Temporali  Ghiacco  Turbolenza  Onda orograficha  Ceneri Vulcaniche






- Altitudine del aeroporto : 291 ft
- Codice IATA : ORY


LFPO - Paris-Orly

ULTIMO METAR :
  • 250800Z 19003KT 160V220 0350 R02/0400N R25/0400N R07/0350N R24/0400N R06/0400N FG VV/// M00/M00 Q1033 NOSIG

METARs OBSOLETI :
  • 250730Z 00000KT 0350 R02/0450N R25/0550N R07/0400N R24/0450N R06/0400N FZFG VV/// M01/M01 Q1033 NOSIG
  • 250700Z 00000KT 0300 R02/0550N R25/0600N R07/0450U R24/0550N R06/0450N FZFG VV/// M01/M01 Q1033 NOSIG
  • 250630Z VRB02KT 0300 R02/0450N R25/0550N R07/0375N R24/0400N R06/0400N FZFG VV/// M01/M01 Q1033 NOSIG
  • 250600Z 00000KT 0300 R02/0550N R25/0600N R07/0375N R24/0375N R06/0375N FZFG VV/// M01/M01 Q1033 NOSIG

TAF AMD TAF LFPO
Valido dal 25 a 08 ore il 26 a 12 ore UTC


250805Z 2508/2612 VRB03KT 0300 FG VV///
BECMG 2509/2511 3000 BR OVC003
BECMG 2511/2513 6000 NSW BKN008
TEMPO 2514/2518 BKN012
BECMG 2521/2523 3000 BR BKN003
PROB30
TEMPO 2603/2607 0800 FG OVC001
BECMG 2610/2612 6000 NSW BKN006
ATIS : +33 1 49 75 65 80



MetMap, La meteo Aeronautica in un colpo d'occhio ! - Copyright ORBIFLY Dicembre 2007 - Disclaimer

ORBIFLY MET'MAP TEAM :

Programmazione e sviluppo : Alexandra Zaïnal
Concezione : Baudouin d'Aumeries
Supporto tecnico e logistico : Manuel Goepfert
Aiuto : Marc-Olivier Méhu
Aiuto per la traduzione : Arnaldo La Scala

Contatto : metmap@orbifly.com




FONTI E CREDITI :

   NOAA